Aérodrome :
LOGIN :

S'inscrire | Disclaimer

   EN    FR    IT 

 










Légende :    VFR   VFR Marginal   IFR   IFR Intensif   IFR Très Intensif
Visi : 
Plafond : 
>= 8 km
>= 3000ft
5 à 8 km
1000 à 3000 ft
1500m à 5 km
500 à 1000 ft
800 à 1500m
200 à 500 ft
< 800m
< 200 ft
Symboles :   Orages  Brouillard  Fortes neiges  Fortes précipitations  Vent > 20 kt
SIGMETs :   Divers  Orages  Givrage  Turbulence  Onde Orograph.  Cendres Volcan.







- Altitude de l'aérodrome : 83 ft
- Code IATA : LHR
- Voir les cartes d'approche


EGLL - London Heathrow

DERNIER METAR :
  • 162350Z AUTO VRB03KT 9999 FEW017 BKN032 15/13 Q1023 NOSIG

METARs EXPIRÉS :
  • 162320Z AUTO 36004KT 9999 BKN033 16/13 Q1023
  • 162250Z AUTO 36004KT 9999 OVC030 16/13 Q1023
  • 162220Z AUTO 36003KT 9999 OVC030 16/13 Q1023
  • 162150Z AUTO VRB03KT 9999 OVC032 16/13 Q1023 NOSIG
  • 162120Z AUTO VRB03KT 9999 OVC030 17/13 Q1023 NOSIG

TAF TAF EGLL
Valide du 17 à 00h jusqu'au 18 à 06h UTC


162255Z 1700/1806 35006KT 9999 SCT030
PROB30 1702/1707 7000
Pas de NOTAMs connus pour ce terrain.



MET'MAP, la Météo Aéronautique d'un coup d'oeil ! - Copyright ORBIFLY Décembre 2007 - Disclaimer

ORBIFLY MET'MAP TEAM :

Programmation & Développement : Alexandra Zaïnal
Conception & Développement : Baudouin d'Aumeries
Co-Programmation & Développement : Marc-Olivier Méhu
Soutien technique & logistique : Manuel Goepfert

Contact : metmap@orbifly.com




SOURCES & CREDITS :

   NOAA